Time;durP1;ratioP1;P1;durP2;ratioP2;P2;SDS_P1;SDS_P2;PMS_P1;PMS_P2;Temp;Humidity;BMP_temperature;BMP_pressure;BME280_temperature;BME280_humidity;BME280_pressure;Samples;Min_cycle;Max_cycle;Signal;HPM_P1;HPM_P2
2023/03/07 00:00:31;;;;;;;4.33;2.03;;;4.60;99.90;;;;;;5054249;28;20537;-86
2023/03/07 00:02:57;;;;;;;0.60;0.57;;;4.60;99.90;;;;;;5069355;28;20572;-86
2023/03/07 00:05:23;;;;;;;0.50;0.50;;;4.60;99.90;;;;;;5069490;28;20223;-85
2023/03/07 00:07:48;;;;;;;0.73;0.73;;;4.60;99.90;;;;;;5087442;28;20247;-85
2023/03/07 00:10:14;;;;;;;0.30;0.30;;;4.70;99.90;;;;;;5069294;28;20770;-86
2023/03/07 00:12:40;;;;;;;0.30;0.30;;;4.80;99.90;;;;;;5070593;28;20185;-85
2023/03/07 00:15:06;;;;;;;0.80;0.80;;;4.80;99.90;;;;;;5088263;28;20301;-84
2023/03/07 00:17:38;;;;;;;0.30;0.30;;;4.90;99.90;;;;;;5070451;28;20584;-85
2023/03/07 00:20:10;;;;;;;0.20;0.20;;;4.90;99.90;;;;;;5088738;28;20209;-86
2023/03/07 00:22:36;;;;;;;0.30;0.30;;;4.90;99.90;;;;;;5054590;28;20766;-85
2023/03/07 00:25:03;;;;;;;0.20;0.20;;;4.60;99.90;;;;;;5070814;28;20243;-85
2023/03/07 00:27:30;;;;;;;2.43;0.63;;;4.70;99.90;;;;;;5070599;28;20205;-85
2023/03/07 00:29:57;;;;;;;3.80;0.60;;;4.70;99.90;;;;;;5088337;28;20215;-86
2023/03/07 00:32:23;;;;;;;0.43;0.43;;;4.70;99.90;;;;;;5053390;28;20216;-86
2023/03/07 00:34:49;;;;;;;6.23;1.33;;;4.80;99.90;;;;;;5087083;28;20742;-86
2023/03/07 00:37:14;;;;;;;2.03;1.07;;;4.80;99.90;;;;;;5085605;28;20185;-86
2023/03/07 00:39:41;;;;;;;0.60;0.60;;;4.80;99.90;;;;;;5053006;28;20180;-85
2023/03/07 00:42:07;;;;;;;1.07;1.07;;;4.80;99.90;;;;;;5069313;28;20295;-83
2023/03/07 00:44:33;;;;;;;1.00;1.00;;;4.80;99.90;;;;;;5068839;28;20710;-85
2023/03/07 00:46:59;;;;;;;0.57;0.57;;;4.70;99.90;;;;;;5087653;28;20213;-85
2023/03/07 00:49:25;;;;;;;0.30;0.30;;;4.70;99.90;;;;;;5069654;28;20212;-85
2023/03/07 00:51:51;;;;;;;0.57;0.57;;;4.60;99.90;;;;;;5089237;28;20777;-85
2023/03/07 00:54:17;;;;;;;0.60;0.60;;;4.60;99.90;;;;;;5090440;28;20225;-83
2023/03/07 00:56:43;;;;;;;0.40;0.40;;;4.60;99.90;;;;;;5073230;28;20224;-84
2023/03/07 00:59:09;;;;;;;0.30;0.30;;;4.60;99.90;;;;;;5091231;28;20289;-85
2023/03/07 01:01:35;;;;;;;0.20;0.20;;;4.40;99.90;;;;;;5073323;28;20208;-85
2023/03/07 01:04:01;;;;;;;0.30;0.30;;;4.30;99.90;;;;;;5091939;28;20200;-85
2023/03/07 01:06:29;;;;;;;0.30;0.30;;;4.20;99.90;;;;;;5073436;28;20231;-85
2023/03/07 01:08:57;;;;;;;0.40;0.40;;;4.20;99.90;;;;;;5091244;28;20220;-84
2023/03/07 01:11:23;;;;;;;0.30;0.30;;;4.20;99.90;;;;;;5073234;28;20216;-85
2023/03/07 01:13:49;;;;;;;0.30;0.30;;;4.20;99.90;;;;;;5073068;28;20228;-84
2023/03/07 01:16:17;;;;;;;1.30;1.27;;;4.30;99.90;;;;;;5091112;28;20195;-84
2023/03/07 01:18:44;;;;;;;0.40;0.40;;;4.30;99.90;;;;;;5073562;28;20199;-85
2023/03/07 01:21:16;;;;;;;1.63;1.10;;;4.30;99.90;;;;;;5091038;28;20212;-83
2023/03/07 01:23:42;;;;;;;0.43;0.43;;;4.30;99.90;;;;;;5090682;28;20263;-84
2023/03/07 01:26:17;;;;;;;0.37;0.37;;;4.30;99.90;;;;;;5056329;28;20425;-84
2023/03/07 01:28:44;;;;;;;0.50;0.50;;;4.30;99.90;;;;;;5090536;28;20262;-82
2023/03/07 01:31:11;;;;;;;0.20;0.20;;;4.30;99.90;;;;;;5090897;28;20204;-84
2023/03/07 01:33:37;;;;;;;0.30;0.30;;;4.40;99.90;;;;;;5091178;28;20181;-83
2023/03/07 01:36:04;;;;;;;0.20;0.20;;;4.40;99.90;;;;;;5090669;28;20208;-84
2023/03/07 01:38:32;;;;;;;0.20;0.20;;;4.50;99.90;;;;;;5090254;28;20216;-83
2023/03/07 01:41:02;;;;;;;0.30;0.30;;;4.60;99.90;;;;;;5089815;28;20219;-84
2023/03/07 01:43:30;;;;;;;0.30;0.30;;;4.70;99.90;;;;;;5090264;28;20265;-83
2023/03/07 01:47:00;;;;;;;0.30;0.30;;;4.60;99.90;;;;;;5073245;28;20722;-83
2023/03/07 01:49:39;;;;;;;0.50;0.50;;;4.40;99.90;;;;;;5028158;28;20677;-81
2023/03/07 01:52:21;;;;;;;0.20;0.20;;;4.30;99.90;;;;;;5048085;28;20257;-83
2023/03/07 01:54:51;;;;;;;2.30;0.60;;;4.30;99.90;;;;;;5083535;28;20762;-84
2023/03/07 01:57:20;;;;;;;0.30;0.30;;;4.30;99.90;;;;;;5072453;28;20223;-84
2023/03/07 01:59:50;;;;;;;0.30;0.30;;;4.30;99.90;;;;;;5071841;28;20307;-83
2023/03/07 02:02:21;;;;;;;0.30;0.30;;;4.30;99.90;;;;;;5090097;28;20604;-84
2023/03/07 02:04:59;;;;;;;0.30;0.30;;;4.30;99.90;;;;;;5089581;28;20387;-84
2023/03/07 02:07:31;;;;;;;0.80;0.27;;;4.30;99.90;;;;;;5090327;28;20212;-84
2023/03/07 02:09:58;;;;;;;0.30;0.30;;;4.30;99.90;;;;;;5090854;28;20758;-84
2023/03/07 02:12:24;;;;;;;0.40;0.40;;;4.30;99.90;;;;;;5071957;28;20677;-83
2023/03/07 02:14:51;;;;;;;0.30;0.30;;;4.30;99.90;;;;;;5072092;28;20224;-82
2023/03/07 02:17:17;;;;;;;0.30;0.30;;;4.30;99.90;;;;;;5088882;28;20216;-83
2023/03/07 02:19:52;;;;;;;0.30;0.30;;;4.30;99.90;;;;;;5055411;28;20247;-82
2023/03/07 02:22:18;;;;;;;0.30;0.30;;;4.30;99.90;;;;;;5089972;28;20168;-83
2023/03/07 02:25:16;;;;;;;0.30;0.30;;;4.20;99.90;;;;;;5055323;28;20858;-83
2023/03/07 02:27:42;;;;;;;0.30;0.30;;;4.30;99.90;;;;;;5072006;28;20208;-83
2023/03/07 02:30:09;;;;;;;0.70;0.70;;;4.30;99.90;;;;;;5071885;28;20220;-84
2023/03/07 02:32:34;;;;;;;0.30;0.30;;;4.20;99.90;;;;;;5089626;28;20220;-84
2023/03/07 02:35:00;;;;;;;1.33;0.97;;;4.30;99.90;;;;;;5089261;28;20768;-85
2023/03/07 02:37:30;;;;;;;1.03;1.03;;;4.30;99.90;;;;;;5071594;28;20239;-83
2023/03/07 02:40:00;;;;;;;0.30;0.30;;;4.30;99.90;;;;;;5071682;28;20181;-83
2023/03/07 02:42:29;;;;;;;0.30;0.30;;;4.20;99.90;;;;;;5071667;28;20303;-83
2023/03/07 02:44:57;;;;;;;0.30;0.30;;;4.10;99.90;;;;;;5071432;28;20247;-83
2023/03/07 02:47:23;;;;;;;0.40;0.40;;;4.10;99.90;;;;;;5071279;28;20311;-83
2023/03/07 02:49:49;;;;;;;0.30;0.30;;;4.10;99.90;;;;;;5070846;28;20820;-83
2023/03/07 02:52:15;;;;;;;0.27;0.27;;;4.10;99.90;;;;;;5071489;28;20185;-83
2023/03/07 02:54:40;;;;;;;0.83;0.83;;;4.10;99.90;;;;;;5088513;28;20180;-83
2023/03/07 02:57:06;;;;;;;0.30;0.30;;;4.10;99.90;;;;;;5070971;28;20220;-84
2023/03/07 02:59:32;;;;;;;0.60;0.60;;;4.00;99.90;;;;;;5070985;28;20662;-83
2023/03/07 03:01:58;;;;;;;1.27;1.23;;;4.10;99.90;;;;;;5071183;28;20220;-83
2023/03/07 03:04:23;;;;;;;2.90;1.40;;;4.00;99.90;;;;;;5070486;28;20240;-84
2023/03/07 03:06:49;;;;;;;0.30;0.30;;;4.00;99.90;;;;;;5070482;28;20203;-84
2023/03/07 03:09:15;;;;;;;1.90;0.57;;;4.00;99.90;;;;;;5088010;28;20248;-84
2023/03/07 03:11:41;;;;;;;0.40;0.40;;;4.10;99.90;;;;;;5053049;28;20647;-84
2023/03/07 03:14:07;;;;;;;0.60;0.60;;;4.10;99.90;;;;;;5087568;28;20572;-84
2023/03/07 03:16:33;;;;;;;0.30;0.30;;;4.10;99.90;;;;;;5087855;28;20661;-83
2023/03/07 03:18:59;;;;;;;9.87;0.90;;;4.10;99.90;;;;;;5069989;28;20249;-84
2023/03/07 03:21:25;;;;;;;0.30;0.30;;;4.00;99.90;;;;;;5087632;28;20232;-83
2023/03/07 03:23:51;;;;;;;1.03;0.40;;;4.00;99.90;;;;;;5069585;28;20313;-84
2023/03/07 03:26:16;;;;;;;0.67;0.67;;;4.00;99.90;;;;;;5069820;28;20674;-84
2023/03/07 03:28:42;;;;;;;0.30;0.30;;;4.00;99.90;;;;;;5052911;28;20217;-84
2023/03/07 03:31:13;;;;;;;0.30;0.30;;;4.10;99.90;;;;;;5069545;28;20346;-84
2023/03/07 03:33:40;;;;;;;4.60;0.87;;;4.10;99.90;;;;;;5089069;28;20618;-83
2023/03/07 03:36:15;;;;;;;0.30;0.30;;;4.10;99.90;;;;;;5070830;28;20243;-83
2023/03/07 03:38:41;;;;;;;0.30;0.30;;;4.00;99.90;;;;;;5054156;28;20251;-83
2023/03/07 03:41:11;;;;;;;0.33;0.33;;;4.10;99.90;;;;;;5088611;28;20243;-83
2023/03/07 03:43:37;;;;;;;0.23;0.23;;;4.20;99.90;;;;;;5088653;28;20297;-83
2023/03/07 03:46:03;;;;;;;0.30;0.30;;;4.10;99.90;;;;;;5089198;28;20169;-83
2023/03/07 03:48:29;;;;;;;1.40;0.70;;;4.10;99.90;;;;;;5070729;28;20268;-84
2023/03/07 03:51:04;;;;;;;0.30;0.30;;;4.10;99.90;;;;;;5088385;28;20232;-85
2023/03/07 03:53:36;;;;;;;0.73;0.73;;;4.10;99.90;;;;;;5070663;28;20219;-84
2023/03/07 03:56:22;;;;;;;0.30;0.30;;;4.10;99.90;;;;;;5088751;28;20220;-83
2023/03/07 03:58:50;;;;;;;0.20;0.20;;;4.10;99.90;;;;;;5070510;28;20212;-84
2023/03/07 04:01:18;;;;;;;2.37;0.50;;;4.10;99.90;;;;;;5053632;28;20191;-83
2023/03/07 04:03:46;;;;;;;0.30;0.30;;;4.10;99.90;;;;;;5070971;28;20814;-84
2023/03/07 04:06:15;;;;;;;0.50;0.50;;;4.20;99.90;;;;;;5070538;28;20368;-83
2023/03/07 04:08:41;;;;;;;0.40;0.40;;;4.20;99.90;;;;;;5088299;28;20219;-82
2023/03/07 04:11:07;;;;;;;0.63;0.63;;;4.20;99.90;;;;;;5070798;28;20221;-83
2023/03/07 04:13:34;;;;;;;0.20;0.20;;;4.10;99.90;;;;;;5070333;28;20212;-82
2023/03/07 04:16:00;;;;;;;0.97;0.97;;;4.10;99.90;;;;;;5088810;28;20169;-83
2023/03/07 04:18:26;;;;;;;0.30;0.30;;;4.10;99.90;;;;;;5070518;28;20292;-84
2023/03/07 04:20:52;;;;;;;0.50;0.50;;;4.20;99.90;;;;;;5070270;28;20227;-84
2023/03/07 04:23:19;;;;;;;0.27;0.27;;;4.20;99.90;;;;;;5053324;28;20754;-84
2023/03/07 04:25:49;;;;;;;0.70;0.70;;;4.20;99.90;;;;;;5070013;28;20736;-83
2023/03/07 04:28:16;;;;;;;0.60;0.60;;;4.20;99.90;;;;;;5074089;28;20177;-84
2023/03/07 04:30:42;;;;;;;0.30;0.30;;;4.20;99.90;;;;;;5074697;28;20581;-84
2023/03/07 04:33:08;;;;;;;0.30;0.30;;;4.20;99.90;;;;;;5073743;28;20225;-83
2023/03/07 04:35:33;;;;;;;0.20;0.20;;;4.20;99.90;;;;;;5073980;28;20295;-84
2023/03/07 04:37:59;;;;;;;0.77;0.77;;;4.00;99.90;;;;;;5056909;28;20265;-84
2023/03/07 04:40:25;;;;;;;1.57;1.47;;;3.90;99.90;;;;;;5073804;28;20564;-83
2023/03/07 04:42:51;;;;;;;0.20;0.20;;;3.90;99.90;;;;;;5073463;28;20635;-84
2023/03/07 04:45:16;;;;;;;0.33;0.33;;;3.80;99.90;;;;;;5090852;28;20788;-83
2023/03/07 04:47:42;;;;;;;22.53;1.67;;;3.80;99.90;;;;;;5072364;28;20323;-83
2023/03/07 04:50:08;;;;;;;0.30;0.30;;;3.90;99.90;;;;;;5071966;28;20581;-84
2023/03/07 04:52:34;;;;;;;0.30;0.30;;;3.90;99.90;;;;;;5055703;28;20217;-83
2023/03/07 04:55:00;;;;;;;0.30;0.30;;;3.90;99.90;;;;;;5072828;28;20684;-83
2023/03/07 04:57:26;;;;;;;0.30;0.30;;;3.70;99.90;;;;;;5072140;28;20244;-83
2023/03/07 04:59:51;;;;;;;0.30;0.30;;;3.60;99.90;;;;;;5055560;28;20755;-83
2023/03/07 05:02:17;;;;;;;1.53;0.53;;;3.50;99.90;;;;;;5072262;28;20215;-84
2023/03/07 05:04:43;;;;;;;0.50;0.50;;;3.50;99.90;;;;;;5055833;28;20274;-82
2023/03/07 05:07:09;;;;;;;0.40;0.40;;;3.50;99.90;;;;;;5091219;28;20184;-82
2023/03/07 05:09:34;;;;;;;0.33;0.33;;;3.60;99.90;;;;;;5073436;28;20601;-82
2023/03/07 05:12:00;;;;;;;0.30;0.30;;;3.60;99.90;;;;;;5072634;28;20221;-81
2023/03/07 05:14:26;;;;;;;1.67;1.60;;;3.60;99.90;;;;;;5090799;28;20692;-83
2023/03/07 05:16:52;;;;;;;0.30;0.30;;;3.60;99.90;;;;;;5071747;28;20218;-83
2023/03/07 05:19:17;;;;;;;2.73;0.60;;;3.60;99.90;;;;;;5089713;28;20277;-83
2023/03/07 05:21:43;;;;;;;0.30;0.30;;;3.60;99.90;;;;;;5055787;28;20808;-84
2023/03/07 05:24:09;;;;;;;0.30;0.30;;;3.60;99.90;;;;;;5054426;28;20695;-84
2023/03/07 05:26:35;;;;;;;0.30;0.30;;;3.60;99.90;;;;;;5071490;28;20232;-84
2023/03/07 05:29:01;;;;;;;0.40;0.40;;;3.70;99.90;;;;;;5071902;28;20212;-84
2023/03/07 05:31:27;;;;;;;0.30;0.30;;;3.70;99.90;;;;;;5071765;28;20224;-83
2023/03/07 05:33:53;;;;;;;0.30;0.30;;;3.70;99.90;;;;;;5056153;28;20815;-82
2023/03/07 05:36:19;;;;;;;0.30;0.30;;;3.60;99.90;;;;;;5072905;28;20216;-83
2023/03/07 05:38:44;;;;;;;0.30;0.30;;;3.60;99.90;;;;;;5090190;28;20233;-84
2023/03/07 05:41:11;;;;;;;0.30;0.30;;;3.60;99.90;;;;;;5090104;28;20246;-83
2023/03/07 05:43:37;;;;;;;0.30;0.30;;;3.50;99.90;;;;;;5071958;28;20308;-82
2023/03/07 05:46:03;;;;;;;0.20;0.20;;;3.50;99.90;;;;;;5055786;28;20290;-82
2023/03/07 05:48:28;;;;;;;0.30;0.30;;;3.50;99.90;;;;;;5090201;28;20219;-81
2023/03/07 05:50:58;;;;;;;0.23;0.23;;;3.50;99.90;;;;;;5071811;28;20220;-83
2023/03/07 05:53:24;;;;;;;0.30;0.30;;;3.30;99.90;;;;;;5071790;28;20269;-83
2023/03/07 05:55:50;;;;;;;0.30;0.30;;;3.00;99.90;;;;;;5088672;28;20292;-82
2023/03/07 05:58:15;;;;;;;0.30;0.30;;;2.90;99.90;;;;;;5088656;28;20581;-82
2023/03/07 06:00:41;;;;;;;0.30;0.30;;;2.90;99.90;;;;;;5054042;28;20589;-84
2023/03/07 06:03:07;;;;;;;0.40;0.40;;;2.90;99.90;;;;;;5089469;28;20307;-84
2023/03/07 06:05:33;;;;;;;0.20;0.20;;;2.90;99.90;;;;;;5072068;28;20220;-83
2023/03/07 06:07:59;;;;;;;0.30;0.30;;;2.80;99.90;;;;;;5053846;28;20212;-83
2023/03/07 06:10:25;;;;;;;0.30;0.30;;;2.80;99.90;;;;;;5090159;28;20734;-85
2023/03/07 06:12:54;;;;;;;0.30;0.30;;;2.80;99.90;;;;;;5072860;28;20261;-85
2023/03/07 06:15:21;;;;;;;0.30;0.30;;;2.80;99.90;;;;;;5072166;28;20231;-84
2023/03/07 06:17:47;;;;;;;0.30;0.30;;;2.90;99.90;;;;;;5090074;28;20243;-84
2023/03/07 06:20:13;;;;;;;0.40;0.40;;;2.90;99.90;;;;;;5071642;28;20424;-84
2023/03/07 06:22:39;;;;;;;0.20;0.20;;;2.90;99.90;;;;;;5071795;28;20216;-84
2023/03/07 06:25:06;;;;;;;0.30;0.30;;;2.90;99.90;;;;;;5071575;28;20243;-83
2023/03/07 06:27:36;;;;;;;0.53;0.53;;;3.00;99.90;;;;;;5072554;28;20279;-85
2023/03/07 06:30:04;;;;;;;0.30;0.30;;;3.00;99.90;;;;;;5055609;28;20212;-83
2023/03/07 06:32:31;;;;;;;0.30;0.30;;;3.10;99.90;;;;;;5089775;28;20273;-83
2023/03/07 06:34:57;;;;;;;0.30;0.30;;;3.10;99.90;;;;;;5089583;28;20220;-83
2023/03/07 06:37:23;;;;;;;0.30;0.30;;;3.10;99.90;;;;;;5072228;28;20181;-83
2023/03/07 06:39:49;;;;;;;0.30;0.30;;;3.00;99.90;;;;;;5090231;28;20271;-84
2023/03/07 06:42:17;;;;;;;0.30;0.30;;;3.00;99.90;;;;;;5072481;28;20217;-84
2023/03/07 06:44:43;;;;;;;0.30;0.30;;;3.00;99.90;;;;;;5054890;28;20237;-83
2023/03/07 06:47:09;;;;;;;0.20;0.20;;;3.10;99.90;;;;;;5054684;28;20212;-83
2023/03/07 06:49:34;;;;;;;1.10;1.07;;;3.00;99.90;;;;;;5069650;28;20224;-83
2023/03/07 06:52:00;;;;;;;0.30;0.30;;;3.10;99.90;;;;;;5088912;28;20400;-82
2023/03/07 06:54:26;;;;;;;0.30;0.30;;;3.10;99.90;;;;;;5054067;28;20223;-83
2023/03/07 06:56:52;;;;;;;0.30;0.30;;;3.10;99.90;;;;;;5070695;28;20297;-83
2023/03/07 06:59:18;;;;;;;0.30;0.30;;;3.10;99.90;;;;;;5053935;28;20208;-83
2023/03/07 07:01:44;;;;;;;0.57;0.57;;;3.10;99.90;;;;;;5087853;28;20261;-84
2023/03/07 07:04:10;;;;;;;0.50;0.50;;;3.20;99.90;;;;;;5070901;28;20614;-85
2023/03/07 07:06:36;;;;;;;0.30;0.30;;;3.30;99.90;;;;;;5089654;28;20271;-85
2023/03/07 07:09:04;;;;;;;0.53;0.33;;;3.30;99.90;;;;;;5088409;28;20303;-84
2023/03/07 07:11:30;;;;;;;0.70;0.70;;;3.30;99.90;;;;;;5089697;28;20212;-85
2023/03/07 07:13:56;;;;;;;0.30;0.30;;;3.30;99.90;;;;;;5071449;28;20216;-83
2023/03/07 07:16:22;;;;;;;0.30;0.30;;;3.40;99.90;;;;;;5071119;28;20230;-83
2023/03/07 07:18:50;;;;;;;0.20;0.20;;;3.40;99.90;;;;;;5070381;28;20206;-83
2023/03/07 07:21:17;;;;;;;1.20;1.10;;;3.40;99.90;;;;;;5088940;28;20216;-84
2023/03/07 07:23:42;;;;;;;2.30;1.60;;;3.40;99.90;;;;;;5087907;28;20278;-84
2023/03/07 07:26:08;;;;;;;0.20;0.20;;;3.40;99.90;;;;;;5087347;28;20248;-83
2023/03/07 07:28:34;;;;;;;0.40;0.40;;;3.40;99.90;;;;;;5087623;28;20256;-85
2023/03/07 07:31:00;;;;;;;0.57;0.57;;;3.40;99.90;;;;;;5069520;28;20241;-83
2023/03/07 07:33:26;;;;;;;0.97;0.93;;;3.50;99.90;;;;;;5087536;28;20704;-83
2023/03/07 07:35:52;;;;;;;0.30;0.30;;;3.50;99.90;;;;;;5069909;28;20292;-83
2023/03/07 07:38:17;;;;;;;0.30;0.30;;;3.50;99.90;;;;;;5088006;28;20213;-83
2023/03/07 07:40:44;;;;;;;0.30;0.30;;;3.40;99.90;;;;;;5070966;28;20208;-84
2023/03/07 07:43:15;;;;;;;0.30;0.30;;;3.30;99.90;;;;;;5070477;28;20271;-84
2023/03/07 07:45:41;;;;;;;0.20;0.20;;;3.20;99.90;;;;;;5088693;28;20180;-82
2023/03/07 07:48:06;;;;;;;0.40;0.40;;;3.20;99.90;;;;;;5070761;28;20216;-83
2023/03/07 07:50:32;;;;;;;0.40;0.40;;;3.30;99.90;;;;;;5088296;28;20652;-82
2023/03/07 07:52:58;;;;;;;0.23;0.23;;;3.40;99.90;;;;;;5053615;28;20220;-83
2023/03/07 07:55:24;;;;;;;0.73;0.73;;;3.40;99.90;;;;;;5053837;28;20747;-83
2023/03/07 07:57:50;;;;;;;3.73;1.53;;;3.50;99.90;;;;;;5070903;28;20179;-82
2023/03/07 08:00:20;;;;;;;0.30;0.30;;;3.50;99.90;;;;;;5069414;28;20212;-83
2023/03/07 08:02:49;;;;;;;0.30;0.30;;;2.90;99.90;;;;;;5072183;28;20243;-84
2023/03/07 08:05:18;;;;;;;0.30;0.30;;;2.40;99.90;;;;;;5072204;28;20224;-83
2023/03/07 08:07:44;;;;;;;0.30;0.30;;;2.20;99.90;;;;;;5091001;28;20235;-83
2023/03/07 08:10:14;;;;;;;0.30;0.30;;;2.30;99.90;;;;;;5091321;28;20177;-83
2023/03/07 08:12:47;;;;;;;0.30;0.30;;;2.30;99.90;;;;;;5091584;28;20173;-84
2023/03/07 08:15:15;;;;;;;0.30;0.30;;;2.40;99.90;;;;;;5090918;28;20299;-85
2023/03/07 08:17:42;;;;;;;0.30;0.30;;;2.50;99.90;;;;;;5073693;28;20238;-84
2023/03/07 08:20:08;;;;;;;0.30;0.30;;;2.50;99.90;;;;;;5091781;28;20226;-84
2023/03/07 08:22:38;;;;;;;0.30;0.30;;;2.60;99.90;;;;;;5092942;28;20404;-86
2023/03/07 08:25:05;;;;;;;0.30;0.30;;;2.80;99.90;;;;;;5074909;28;20240;-86
2023/03/07 08:27:31;;;;;;;0.30;0.30;;;2.80;99.90;;;;;;5093374;28;20241;-86
2023/03/07 08:29:58;;;;;;;0.30;0.30;;;2.80;99.90;;;;;;5091582;28;20236;-86
2023/03/07 08:32:24;;;;;;;0.30;0.30;;;2.90;99.90;;;;;;5055298;28;20208;-85
2023/03/07 08:34:49;;;;;;;0.30;0.30;;;2.90;99.90;;;;;;5091511;28;20218;-85
2023/03/07 08:37:15;;;;;;;1.90;1.43;;;3.00;99.90;;;;;;5056861;28;20541;-85
2023/03/07 08:39:41;;;;;;;3.40;0.90;;;3.00;99.90;;;;;;5074820;28;20511;-84
2023/03/07 08:42:07;;;;;;;0.30;0.30;;;3.10;99.90;;;;;;5091969;28;20223;-84
2023/03/07 08:44:32;;;;;;;0.40;0.40;;;3.20;99.90;;;;;;5057514;28;20229;-85
2023/03/07 08:46:58;;;;;;;0.30;0.30;;;3.20;99.90;;;;;;5092522;28;20226;-85
2023/03/07 08:49:24;;;;;;;0.30;0.30;;;3.30;99.90;;;;;;5092443;28;20224;-85
2023/03/07 08:51:49;;;;;;;0.30;0.30;;;3.40;99.90;;;;;;5075160;28;20216;-85
2023/03/07 08:54:15;;;;;;;3.60;0.50;;;3.50;99.90;;;;;;5057761;28;20220;-85
2023/03/07 08:56:41;;;;;;;0.77;0.77;;;3.70;99.90;;;;;;5092048;28;20212;-84
2023/03/07 08:59:07;;;;;;;0.77;0.73;;;3.90;99.90;;;;;;5074441;28;20212;-85
2023/03/07 09:01:32;;;;;;;0.40;0.40;;;4.10;99.90;;;;;;5073520;28;20305;-84
2023/03/07 09:03:58;;;;;;;0.40;0.40;;;4.30;99.90;;;;;;5073413;28;20196;-83
2023/03/07 09:06:24;;;;;;;0.40;0.40;;;4.40;99.90;;;;;;5073044;28;20247;-84
2023/03/07 09:08:50;;;;;;;0.83;0.83;;;4.40;99.90;;;;;;5072905;28;20209;-83
2023/03/07 09:11:16;;;;;;;0.30;0.30;;;4.70;99.90;;;;;;5072690;28;20216;-82
2023/03/07 09:13:43;;;;;;;0.40;0.40;;;4.90;99.90;;;;;;5090594;28;20232;-83
2023/03/07 09:16:09;;;;;;;0.37;0.37;;;5.20;99.90;;;;;;5072693;28;20180;-83
2023/03/07 09:18:35;;;;;;;0.20;0.20;;;5.20;99.90;;;;;;5091294;28;20645;-85
2023/03/07 09:21:02;;;;;;;0.40;0.40;;;5.30;99.90;;;;;;5090890;28;20209;-82
2023/03/07 09:23:28;;;;;;;0.50;0.50;;;5.50;99.90;;;;;;5089526;28;20236;-82
2023/03/07 09:25:57;;;;;;;0.30;0.30;;;5.20;99.90;;;;;;5070628;28;20581;-82
2023/03/07 09:28:22;;;;;;;0.30;0.30;;;5.30;99.90;;;;;;5070622;28;20279;-81
2023/03/07 09:30:48;;;;;;;5.67;1.23;;;5.20;99.90;;;;;;5088862;28;20272;-81
2023/03/07 09:33:14;;;;;;;0.30;0.30;;;5.10;99.90;;;;;;5070140;28;20223;-81
2023/03/07 09:35:40;;;;;;;0.77;0.77;;;5.10;99.90;;;;;;5070368;28;20220;-82
2023/03/07 09:38:05;;;;;;;0.20;0.20;;;5.20;99.90;;;;;;5053617;28;20681;-82
2023/03/07 09:40:31;;;;;;;0.30;0.30;;;5.40;99.90;;;;;;5087122;28;20213;-81
2023/03/07 09:43:30;;;;;;;1.57;1.47;;;5.40;99.90;;;;;;5070581;28;20180;-82
2023/03/07 09:46:12;;;;;;;0.30;0.30;;;5.30;99.90;;;;;;5087767;28;20216;-82
2023/03/07 09:49:06;;;;;;;13.33;0.40;;;5.20;99.90;;;;;;5088580;28;20548;-83
2023/03/07 09:51:34;;;;;;;0.70;0.70;;;5.20;99.90;;;;;;5070419;28;20197;-82
2023/03/07 09:54:08;;;;;;;0.30;0.30;;;5.10;99.90;;;;;;5088080;28;20242;-82
2023/03/07 09:57:01;;;;;;;0.73;0.73;;;5.10;99.90;;;;;;5069807;28;20219;-81
2023/03/07 09:59:41;;;;;;;0.50;0.50;;;5.10;99.90;;;;;;5065707;28;20224;-82
2023/03/07 10:02:35;;;;;;;10.83;0.83;;;5.10;99.90;;;;;;5087580;28;20216;-81
2023/03/07 10:05:21;;;;;;;0.20;0.20;;;5.10;99.90;;;;;;5069583;28;20259;-83
2023/03/07 10:07:47;;;;;;;1.70;1.60;;;5.20;99.90;;;;;;5072948;28;20777;-88
2023/03/07 10:10:16;;;;;;;0.30;0.30;;;5.30;99.90;;;;;;5072233;28;20187;-87
2023/03/07 10:12:48;;;;;;;0.23;0.23;;;5.40;99.90;;;;;;5091399;28;20263;-88
2023/03/07 10:15:44;;;;;;;0.13;0.13;;;5.50;99.90;;;;;;5073110;28;20307;-89
2023/03/07 10:18:19;;;;;;;0.40;0.40;;;6.00;99.90;;;;;;5072776;28;20291;-88
2023/03/07 10:20:56;;;;;;;0.20;0.20;;;6.90;99.90;;;;;;5073063;28;20238;-88
2023/03/07 10:23:36;;;;;;;1.30;1.13;;;7.10;99.90;;;;;;5029409;28;1216988;-88
2023/03/07 10:26:29;;;;;;;0.87;0.63;;;7.30;99.90;;;;;;5090942;28;20217;-89
2023/03/07 10:28:58;;;;;;;0.30;0.30;;;8.40;99.90;;;;;;5073916;28;20641;-89
2023/03/07 10:31:33;;;;;;;0.30;0.30;;;9.10;99.90;;;;;;5073503;28;20217;-89
2023/03/07 10:34:04;;;;;;;0.40;0.40;;;9.30;99.90;;;;;;5092185;28;20363;-88
2023/03/07 10:36:45;;;;;;;0.63;0.63;;;9.80;99.90;;;;;;5091780;28;20205;-89
2023/03/07 10:39:23;;;;;;;0.13;0.13;;;9.70;99.90;;;;;;5072794;28;20204;-89
2023/03/07 10:41:49;;;;;;;0.20;0.20;;;8.60;99.90;;;;;;5073248;28;20305;-87
2023/03/07 10:44:18;;;;;;;0.20;0.20;;;8.30;99.90;;;;;;5072982;28;20716;-88
2023/03/07 10:46:45;;;;;;;1.23;0.30;;;8.60;99.90;;;;;;5072893;28;20580;-89
2023/03/07 10:49:25;;;;;;;0.20;0.20;;;8.40;99.90;;;;;;5072835;28;20200;-90
2023/03/07 10:52:04;;;;;;;0.20;0.20;;;8.50;99.90;;;;;;5091546;28;20246;-89
2023/03/07 10:54:35;;;;;;;0.20;0.20;;;7.90;99.90;;;;;;5090824;28;20360;-87
2023/03/07 10:57:11;;;;;;;0.10;0.10;;;7.30;99.90;;;;;;5090270;28;20224;-87
2023/03/07 10:59:48;;;;;;;0.30;0.30;;;8.00;99.90;;;;;;5073927;28;20681;-86
2023/03/07 11:02:36;;;;;;;0.10;0.10;;;8.50;99.90;;;;;;5071887;28;20272;-86
2023/03/07 11:05:27;;;;;;;0.20;0.20;;;7.70;99.90;;;;;;5072175;28;20816;-87
2023/03/07 11:07:53;;;;;;;0.43;0.43;;;7.80;99.90;;;;;;5071517;28;20295;-86
2023/03/07 11:10:33;;;;;;;1.30;1.30;;;7.70;99.90;;;;;;5070624;28;20602;-87
2023/03/07 11:13:19;;;;;;;0.10;0.10;;;8.40;99.90;;;;;;5071203;28;20161;-87
2023/03/07 11:15:45;;;;;;;0.20;0.20;;;8.60;99.90;;;;;;5070830;28;20554;-86
2023/03/07 11:18:41;;;;;;;0.20;0.20;;;8.00;99.90;;;;;;5070341;28;20359;-86
2023/03/07 11:21:30;;;;;;;0.87;0.87;;;7.50;99.90;;;;;;5083679;28;20356;-88
2023/03/07 11:24:19;;;;;;;1.03;0.43;;;6.70;99.90;;;;;;5070317;28;20709;-88
2023/03/07 11:26:45;;;;;;;0.20;0.20;;;6.60;99.90;;;;;;5071662;28;20420;-88
2023/03/07 11:29:13;;;;;;;0.30;0.30;;;7.10;99.90;;;;;;5072624;28;20243;-89
2023/03/07 11:31:47;;;;;;;0.60;0.60;;;7.40;99.90;;;;;;5072561;28;20274;-88
2023/03/07 11:34:50;;;;;;;0.20;0.20;;;7.80;99.90;;;;;;5090740;28;20180;-89
2023/03/07 11:37:22;;;;;;;0.20;0.20;;;8.00;99.90;;;;;;5072078;28;20237;-88
2023/03/07 11:40:25;;;;;;;0.17;0.17;;;8.00;99.90;;;;;;5071403;28;20650;-90
2023/03/07 11:43:10;;;;;;;0.50;0.50;;;7.90;99.90;;;;;;5089246;28;20211;-91
2023/03/07 11:45:48;;;;;;;0.40;0.40;;;7.80;99.90;;;;;;5105689;28;20293;-90
2023/03/07 11:48:28;;;;;;;0.20;0.20;;;8.30;99.90;;;;;;5090824;28;20216;-91
2023/03/07 11:50:58;;;;;;;0.20;0.20;;;7.50;99.90;;;;;;5089829;28;20219;-90
2023/03/07 11:53:31;;;;;;;0.47;0.47;;;7.10;99.90;;;;;;5071350;28;20212;-90
2023/03/07 11:56:10;;;;;;;0.20;0.20;;;6.40;99.90;;;;;;5089218;28;20704;-90
2023/03/07 11:59:00;;;;;;;0.20;0.20;;;5.90;99.90;;;;;;5070288;28;20219;-85
2023/03/07 12:01:41;;;;;;;0.30;0.30;;;5.70;99.90;;;;;;5070238;28;20744;-83
2023/03/07 12:04:25;;;;;;;0.30;0.30;;;6.40;99.90;;;;;;5088976;28;20208;-85
2023/03/07 12:07:27;;;;;;;0.30;0.30;;;6.80;99.90;;;;;;5071391;28;20187;-84
2023/03/07 12:09:56;;;;;;;0.33;0.33;;;6.70;99.90;;;;;;5088252;28;20224;-83
2023/03/07 12:12:53;;;;;;;0.10;0.10;;;6.70;99.90;;;;;;5070890;28;20213;-84
2023/03/07 12:15:38;;;;;;;0.20;0.20;;;7.00;99.90;;;;;;5069836;28;20666;-84
2023/03/07 12:18:26;;;;;;;0.20;0.20;;;7.20;99.90;;;;;;5069698;28;20228;-83
2023/03/07 12:21:03;;;;;;;0.20;0.20;;;6.90;99.90;;;;;;5087931;28;20375;-85
2023/03/07 12:23:41;;;;;;;0.20;0.20;;;6.80;99.90;;;;;;5070846;28;20243;-85
2023/03/07 12:26:31;;;;;;;0.20;0.20;;;6.40;99.90;;;;;;5070117;28;20216;-84
2023/03/07 12:29:01;;;;;;;0.20;0.20;;;5.80;99.90;;;;;;5070085;28;20215;-84
2023/03/07 12:31:36;;;;;;;0.20;0.20;;;6.30;99.90;;;;;;5087670;28;20654;-84
2023/03/07 12:34:10;;;;;;;0.10;0.10;;;7.10;99.90;;;;;;5070188;28;20183;-83
2023/03/07 12:36:57;;;;;;;0.23;0.20;;;7.00;99.90;;;;;;5087880;28;20192;-83
2023/03/07 12:39:40;;;;;;;0.20;0.20;;;7.10;99.90;;;;;;5069767;28;20243;-83
2023/03/07 12:42:27;;;;;;;0.20;0.20;;;7.40;99.90;;;;;;5087847;28;20273;-83
2023/03/07 12:44:56;;;;;;;0.40;0.40;;;7.40;99.90;;;;;;5069897;28;20693;-83
2023/03/07 12:47:52;;;;;;;0.30;0.30;;;7.30;99.90;;;;;;5087821;28;20228;-84
2023/03/07 12:50:30;;;;;;;0.40;0.40;;;7.10;99.90;;;;;;5072944;28;20689;-84
2023/03/07 12:53:21;;;;;;;0.20;0.20;;;7.30;99.90;;;;;;5091237;28;20216;-83
2023/03/07 12:56:28;;;;;;;0.10;0.10;;;7.30;99.90;;;;;;5073144;28;20216;-84
2023/03/07 12:59:13;;;;;;;0.20;0.20;;;7.10;99.90;;;;;;5091977;28;20270;-83
2023/03/07 13:01:47;;;;;;;0.73;0.73;;;7.00;99.90;;;;;;5073209;28;20231;-84
2023/03/07 13:04:25;;;;;;;0.20;0.20;;;7.00;99.90;;;;;;5073400;28;20200;-84
2023/03/07 13:06:53;;;;;;;0.40;0.30;;;7.00;99.90;;;;;;5073705;28;20247;-84
2023/03/07 13:09:25;;;;;;;0.30;0.30;;;7.10;99.90;;;;;;5090842;28;20216;-84
2023/03/07 13:12:21;;;;;;;0.17;0.17;;;7.10;99.90;;;;;;5090877;28;20257;-84
2023/03/07 13:14:51;;;;;;;0.20;0.20;;;7.30;99.90;;;;;;5073164;28;20224;-85